Time;durP1;ratioP1;P1;durP2;ratioP2;P2;SDS_P1;SDS_P2;PMS_P1;PMS_P2;Temp;Humidity;BMP_temperature;BMP_pressure;BME280_temperature;BME280_humidity;BME280_pressure;Samples;Min_cycle;Max_cycle;Signal;HPM_P1;HPM_P2
2022/04/16 00:01:53;;;;;;;6.90;3.20;;;;;;;20.20;48.41;102959.63;5011390;28;20026;-58
2022/04/16 00:04:19;;;;;;;6.55;3.17;;;;;;;20.19;48.56;102960.53;5012375;28;20121;-59
2022/04/16 00:06:44;;;;;;;8.00;3.15;;;;;;;20.17;48.52;102959.78;5012353;28;20026;-58
2022/04/16 00:09:10;;;;;;;7.45;3.35;;;;;;;20.16;48.58;102950.13;5011383;28;20034;-59
2022/04/16 00:11:36;;;;;;;8.43;4.07;;;;;;;20.14;48.63;102959.97;5012361;28;20088;-58
2022/04/16 00:14:03;;;;;;;6.30;3.47;;;;;;;20.13;48.44;102958.25;5012159;28;20022;-58
2022/04/16 00:16:29;;;;;;;7.53;3.15;;;;;;;20.12;48.54;102953.88;5013519;28;20050;-58
2022/04/16 00:18:56;;;;;;;8.45;3.17;;;;;;;20.13;48.65;102957.41;5015705;28;20068;-58
2022/04/16 00:21:22;;;;;;;9.52;3.58;;;;;;;20.13;48.57;102962.69;5015087;28;20041;-58
2022/04/16 00:23:51;;;;;;;7.35;3.53;;;;;;;20.10;48.46;102958.41;5015717;28;20072;-58
2022/04/16 00:26:17;;;;;;;7.22;3.00;;;;;;;20.09;48.42;102962.00;5015798;28;20382;-58
2022/04/16 00:28:42;;;;;;;6.82;3.08;;;;;;;20.07;48.41;102958.59;5015136;28;20018;-58
2022/04/16 00:31:07;;;;;;;6.10;3.10;;;;;;;20.06;48.46;102955.09;5015542;28;20430;-58
2022/04/16 00:33:33;;;;;;;6.40;3.40;;;;;;;20.06;48.34;102967.47;5015652;28;20482;-58
2022/04/16 00:36:02;;;;;;;6.05;3.10;;;;;;;20.05;48.53;102956.03;5014627;28;20268;-58
2022/04/16 00:38:27;;;;;;;6.93;3.05;;;;;;;20.04;48.49;102959.59;5015596;28;20014;-58
2022/04/16 00:40:52;;;;;;;6.25;3.22;;;;;;;20.03;48.37;102959.72;5015617;28;20026;-58
2022/04/16 00:43:25;;;;;;;7.22;3.33;;;;;;;20.03;48.48;102962.38;5015192;28;20489;-58
2022/04/16 00:45:52;;;;;;;7.00;3.15;;;;;;;20.02;48.33;102960.66;5015401;28;20037;-58
2022/04/16 00:48:18;;;;;;;7.18;3.33;;;;;;;20.02;48.56;102964.13;5015396;28;20033;-58
2022/04/16 00:50:44;;;;;;;6.10;3.15;;;;;;;20.00;48.37;102965.19;5014601;28;20022;-58
2022/04/16 00:53:12;;;;;;;6.00;3.17;;;;;;;19.99;48.28;102963.47;5014907;28;20428;-58
2022/04/16 00:55:40;;;;;;;8.10;3.17;;;;;;;20.00;48.45;102965.19;5015345;28;20018;-58
2022/04/16 00:58:06;;;;;;;6.20;3.15;;;;;;;19.96;48.23;102959.19;5014060;28;20466;-59
2022/04/16 01:00:31;;;;;;;5.22;2.75;;;;;;;19.95;48.26;102960.16;5015128;28;20026;-58
2022/04/16 01:02:56;;;;;;;5.80;3.13;;;;;;;19.94;48.32;102958.41;5014854;28;20026;-59
2022/04/16 01:05:24;;;;;;;7.57;3.40;;;;;;;19.92;48.43;102955.88;5014098;28;20767;-59
2022/04/16 01:07:58;;;;;;;7.07;4.00;;;;;;;19.91;48.20;102964.72;5014535;28;20378;-59
2022/04/16 01:10:26;;;;;;;6.35;3.53;;;;;;;19.89;48.23;102966.63;5015154;28;20100;-59
2022/04/16 01:12:52;;;;;;;6.07;3.13;;;;;;;19.88;48.45;102962.25;5013667;28;20488;-59
2022/04/16 01:15:20;;;;;;;8.48;3.50;;;;;;;19.87;48.29;102968.50;5014750;28;20088;-58
2022/04/16 01:17:49;;;;;;;6.45;3.10;;;;;;;19.88;48.32;102958.75;5013985;28;20057;-58
2022/04/16 01:20:16;;;;;;;7.10;3.20;;;;;;;19.87;48.40;102962.38;5014680;28;20029;-59
2022/04/16 01:22:42;;;;;;;7.38;3.60;;;;;;;19.85;48.33;102966.88;5014634;28;20466;-59
2022/04/16 01:25:10;;;;;;;6.95;3.22;;;;;;;19.84;48.71;102973.13;5013384;28;20030;-58
2022/04/16 01:27:36;;;;;;;6.40;3.17;;;;;;;19.82;48.35;102967.91;5013521;28;20053;-58
2022/04/16 01:30:04;;;;;;;6.72;3.33;;;;;;;19.83;48.53;102971.41;5014294;28;20465;-58
2022/04/16 01:32:32;;;;;;;6.70;3.15;;;;;;;19.81;48.36;102971.47;5013591;28;20532;-58
2022/04/16 01:35:00;;;;;;;6.53;3.38;;;;;;;19.82;48.33;102972.31;5014138;28;20049;-59
2022/04/16 01:37:31;;;;;;;5.97;2.90;;;;;;;19.83;48.34;102981.97;5014411;28;20025;-59
2022/04/16 01:39:58;;;;;;;6.03;3.40;;;;;;;19.84;48.19;102981.06;5013465;28;20105;-59
2022/04/16 01:42:29;;;;;;;8.25;3.47;;;;;;;19.80;48.33;102980.34;5014321;28;20044;-58
2022/04/16 01:45:18;;;;;;;5.78;3.05;;;;;;;19.79;48.27;102983.94;5013886;28;20437;-59
2022/04/16 01:47:43;;;;;;;7.78;4.15;;;;;;;19.78;48.28;102986.69;5016398;28;20034;-60
2022/04/16 01:50:16;;;;;;;7.95;3.60;;;;;;;19.76;48.57;102986.75;5014010;28;20030;-59
2022/04/16 01:52:42;;;;;;;7.15;3.53;;;;;;;19.75;48.42;102977.91;5014139;28;20025;-59
2022/04/16 01:55:09;;;;;;;6.53;3.03;;;;;;;19.75;48.51;102979.72;5013700;28;20841;-59
2022/04/16 01:57:35;;;;;;;6.47;3.13;;;;;;;19.75;48.24;102985.00;5013914;28;20033;-57
2022/04/16 02:00:00;;;;;;;6.95;3.50;;;;;;;19.73;48.34;102984.25;5013117;28;20118;-58
2022/04/16 02:02:26;;;;;;;6.70;3.17;;;;;;;19.71;48.24;102979.03;5014110;28;20485;-58
2022/04/16 02:04:51;;;;;;;5.82;3.38;;;;;;;19.72;48.20;102980.72;5013377;28;20596;-58
2022/04/16 02:07:16;;;;;;;5.13;2.83;;;;;;;19.71;48.17;102981.69;5013313;28;20034;-58
2022/04/16 02:09:42;;;;;;;8.73;3.47;;;;;;;19.71;48.14;102979.03;5014046;28;20433;-58
2022/04/16 02:12:08;;;;;;;6.30;3.00;;;;;;;19.71;48.26;102981.69;5013354;28;20032;-59
2022/04/16 02:14:33;;;;;;;7.85;3.40;;;;;;;19.70;48.03;102985.25;5013058;28;20026;-59
2022/04/16 02:16:59;;;;;;;6.95;3.47;;;;;;;19.68;48.34;102983.66;5013661;28;20469;-59
2022/04/16 02:19:25;;;;;;;6.43;3.60;;;;;;;19.69;48.33;102985.34;5013802;28;20018;-59
2022/04/16 02:21:51;;;;;;;5.90;3.30;;;;;;;19.67;48.35;102985.44;5012805;28;20033;-59
2022/04/16 02:24:17;;;;;;;7.50;3.55;;;;;;;19.67;48.32;102981.94;5013757;28;20029;-59
2022/04/16 02:26:45;;;;;;;6.97;3.28;;;;;;;19.65;48.16;102986.47;5013583;28;20470;-59
2022/04/16 02:29:11;;;;;;;6.60;3.15;;;;;;;19.63;48.31;102990.97;5012606;28;20029;-59
2022/04/16 02:31:37;;;;;;;7.35;3.38;;;;;;;19.62;48.40;102991.91;5013651;28;20029;-59
2022/04/16 02:34:11;;;;;;;7.65;3.55;;;;;;;19.61;48.36;102992.84;5013183;28;20032;-58
2022/04/16 02:36:43;;;;;;;7.05;3.40;;;;;;;19.61;48.11;102987.56;5012842;28;20092;-59
2022/04/16 02:39:09;;;;;;;8.18;3.50;;;;;;;19.61;48.25;102984.91;5012831;28;20040;-58
2022/04/16 02:41:34;;;;;;;7.00;3.42;;;;;;;19.60;48.07;102989.34;5013326;28;20393;-58
2022/04/16 02:43:59;;;;;;;7.93;4.13;;;;;;;19.60;48.03;102991.13;5012336;28;20029;-58
2022/04/16 02:49:09;;;;;;;7.30;3.65;;;;;;;19.57;47.96;102989.53;5012409;28;20084;-59
2022/04/16 02:51:34;;;;;;;8.80;3.88;;;;;;;19.55;48.13;102999.31;5013172;28;20038;-59
2022/04/16 02:54:00;;;;;;;6.00;3.40;;;;;;;19.56;48.19;102993.94;5012824;28;20022;-59
2022/04/16 02:56:28;;;;;;;6.53;3.50;;;;;;;19.56;48.09;102991.28;5012510;28;20026;-59
2022/04/16 02:58:54;;;;;;;5.82;3.20;;;;;;;19.56;48.05;103004.50;5012996;28;20026;-59
2022/04/16 03:01:19;;;;;;;7.77;3.90;;;;;;;19.54;48.09;103001.09;5013076;28;20532;-59
2022/04/16 03:03:47;;;;;;;9.07;3.80;;;;;;;19.52;47.97;103010.06;5012324;28;20026;-59
2022/04/16 03:06:12;;;;;;;6.22;3.45;;;;;;;19.53;48.18;103006.47;5012607;28;20291;-59
2022/04/16 03:08:37;;;;;;;5.38;3.40;;;;;;;19.50;48.25;103010.16;5012947;28;20030;-59
2022/04/16 03:11:06;;;;;;;7.37;3.33;;;;;;;19.50;48.01;103018.09;5011757;28;20030;-59
2022/04/16 03:13:34;;;;;;;6.72;4.22;;;;;;;19.49;47.92;103011.06;5013184;28;20291;-59
2022/04/16 03:18:47;;;;;;;6.97;3.72;;;;;;;19.47;48.06;103018.25;5012399;28;20036;-58
2022/04/16 03:21:13;;;;;;;6.20;3.65;;;;;;;19.46;47.90;103016.53;5012705;28;20018;-58
2022/04/16 03:23:38;;;;;;;7.78;3.72;;;;;;;19.47;47.89;103026.19;5013046;28;20030;-58
2022/04/16 03:26:04;;;;;;;8.23;3.78;;;;;;;19.47;47.93;103015.59;5011887;28;20025;-58
2022/04/16 03:28:29;;;;;;;8.23;3.60;;;;;;;19.47;47.90;103018.25;5012787;28;20478;-59
2022/04/16 03:30:54;;;;;;;6.03;3.83;;;;;;;19.45;48.00;103017.44;5012621;28;20034;-59
2022/04/16 03:33:20;;;;;;;6.07;3.20;;;;;;;19.47;48.00;103014.72;5012045;28;20064;-59
2022/04/16 03:35:49;;;;;;;7.55;3.42;;;;;;;19.46;47.96;103020.97;5012895;28;20058;-58
2022/04/16 03:38:14;;;;;;;6.57;4.13;;;;;;;19.43;47.97;103014.03;5012157;28;20029;-59
2022/04/16 03:40:40;;;;;;;9.90;3.78;;;;;;;19.42;47.91;103020.25;5012797;28;20033;-59
2022/04/16 03:43:06;;;;;;;7.55;3.60;;;;;;;19.43;47.77;103021.13;5012418;28;20026;-59
2022/04/16 03:45:34;;;;;;;7.82;3.67;;;;;;;19.42;48.13;103014.13;5011774;28;20473;-59
2022/04/16 03:48:01;;;;;;;7.78;3.85;;;;;;;19.40;47.74;103017.69;5012268;28;20425;-59
2022/04/16 03:50:27;;;;;;;7.70;3.38;;;;;;;19.38;47.73;103014.28;5013344;28;20022;-59
2022/04/16 03:52:53;;;;;;;7.10;3.85;;;;;;;19.39;47.97;103010.72;5015492;28;20036;-59
2022/04/16 04:00:50;;;;;;;6.93;3.60;;;;;;;19.36;47.93;103016.16;5015523;28;20171;-59
2022/04/16 04:03:16;;;;;;;6.90;3.83;;;;;;;19.34;47.84;103020.69;5016372;28;20025;-58
2022/04/16 04:05:43;;;;;;;8.75;4.05;;;;;;;19.33;47.85;103024.25;5016098;28;20030;-59
2022/04/16 04:08:09;;;;;;;8.85;4.18;;;;;;;19.32;47.90;103024.34;5015106;28;20088;-58
2022/04/16 04:10:38;;;;;;;8.77;3.97;;;;;;;19.30;47.96;103028.84;5016141;28;20041;-59
2022/04/16 04:13:04;;;;;;;6.82;3.80;;;;;;;19.29;47.76;103024.50;5015531;28;20083;-58
2022/04/16 04:15:30;;;;;;;5.50;3.55;;;;;;;19.29;47.87;103027.13;5015208;28;20042;-58
2022/04/16 04:17:56;;;;;;;7.25;3.92;;;;;;;19.28;47.93;103028.94;5015830;28;20481;-58
2022/04/16 04:20:22;;;;;;;7.18;3.90;;;;;;;19.29;47.74;103035.91;5015849;28;20076;-58
2022/04/16 04:22:47;;;;;;;8.32;3.90;;;;;;;19.27;47.71;103032.50;5015316;28;20022;-58
2022/04/16 04:25:13;;;;;;;7.25;3.83;;;;;;;19.27;47.81;103036.94;5015799;28;20053;-58
2022/04/16 04:27:38;;;;;;;7.47;3.80;;;;;;;19.25;47.54;103037.03;5014870;28;20022;-58
2022/04/16 04:30:04;;;;;;;7.50;3.80;;;;;;;19.26;47.85;103032.56;5015553;28;20025;-58
2022/04/16 04:32:30;;;;;;;7.70;3.75;;;;;;;19.26;47.95;103044.00;5015522;28;20538;-57
2022/04/16 04:34:59;;;;;;;5.57;3.13;;;;;;;19.30;48.12;103042.06;5014617;28;20026;-57
2022/04/16 04:37:24;;;;;;;6.90;3.83;;;;;;;19.36;48.50;103050.53;5015634;28;20030;-57
2022/04/16 04:39:50;;;;;;;6.63;3.57;;;;;;;19.42;48.38;103045.84;5015345;28;20038;-58
2022/04/16 04:42:26;;;;;;;9.38;4.30;;;;;;;19.47;48.29;103057.03;5014821;28;20061;-57
2022/04/16 04:44:52;;;;;;;6.60;3.30;;;;;;;19.49;48.41;103053.38;5015346;28;20116;-58
2022/04/16 04:47:20;;;;;;;8.38;3.83;;;;;;;19.52;48.24;103055.88;5015421;28;20117;-57
2022/04/16 04:49:45;;;;;;;8.60;3.80;;;;;;;19.55;48.10;103062.78;5014641;28;20105;-58
2022/04/16 04:52:19;;;;;;;7.93;4.40;;;;;;;19.57;47.81;103058.28;5015048;28;20438;-59
2022/04/16 04:54:44;;;;;;;6.50;3.85;;;;;;;19.59;47.82;103061.69;5015237;28;20030;-58
2022/04/16 04:57:12;;;;;;;8.60;3.67;;;;;;;19.61;47.86;103066.91;5014277;28;20092;-58
2022/04/16 04:59:37;;;;;;;6.55;3.90;;;;;;;19.63;47.41;103065.91;5015188;28;20275;-58
2022/04/16 05:02:03;;;;;;;8.63;4.23;;;;;;;19.64;47.72;103064.09;5014804;28;20566;-58
2022/04/16 05:04:28;;;;;;;8.38;3.83;;;;;;;19.66;47.15;103067.50;5014425;28;20529;-58
2022/04/16 05:06:53;;;;;;;7.10;3.90;;;;;;;19.66;47.55;103072.81;5014596;28;20363;-59
2022/04/16 05:09:18;;;;;;;5.95;3.78;;;;;;;19.68;47.45;103076.25;5014979;28;20283;-59
2022/04/16 05:11:44;;;;;;;6.50;3.47;;;;;;;19.68;47.31;103078.88;5014099;28;20091;-58
2022/04/16 05:14:09;;;;;;;7.80;3.97;;;;;;;19.68;47.41;103077.09;5014730;28;20307;-59
2022/04/16 05:16:34;;;;;;;6.60;3.73;;;;;;;19.68;47.07;103082.38;5014770;28;20132;-58
2022/04/16 05:18:59;;;;;;;7.25;3.70;;;;;;;19.69;47.42;103083.22;5013762;28;20026;-58
2022/04/16 05:21:24;;;;;;;7.33;3.57;;;;;;;19.70;48.49;103079.66;5014585;28;20034;-57
2022/04/16 05:23:50;;;;;;;8.27;3.47;;;;;;;19.71;49.14;103076.94;5013371;28;20038;-58
2022/04/16 05:26:15;;;;;;;9.20;3.55;;;;;;;19.77;49.40;103090.78;5014644;28;20295;-58
2022/04/16 05:28:41;;;;;;;7.13;3.43;;;;;;;19.80;49.43;103083.53;5014857;28;20030;-58
2022/04/16 05:31:07;;;;;;;9.00;3.78;;;;;;;19.85;49.55;103089.47;5013698;28;20430;-59
2022/04/16 05:36:17;;;;;;;8.23;3.50;;;;;;;19.88;49.17;103086.63;5015371;28;20029;-58
2022/04/16 05:38:44;;;;;;;6.07;2.83;;;;;;;19.90;49.39;103090.06;5014834;28;20111;-58
2022/04/16 05:41:09;;;;;;;8.68;4.15;;;;;;;19.90;46.28;103087.41;5015238;28;20030;-58
2022/04/16 05:43:34;;;;;;;7.40;3.80;;;;;;;19.87;46.65;103089.38;5015269;28;20118;-59
2022/04/16 05:45:59;;;;;;;8.13;3.80;;;;;;;19.87;47.68;103087.56;5013321;28;20295;-58
2022/04/16 05:48:25;;;;;;;7.20;3.30;;;;;;;19.92;48.27;103090.81;5014645;28;20326;-58
2022/04/16 05:50:57;;;;;;;6.65;3.40;;;;;;;19.93;46.18;103094.31;5013744;28;20725;-58
2022/04/16 05:53:23;;;;;;;7.47;3.72;;;;;;;19.91;47.69;103090.91;5013524;28;20076;-57
2022/04/16 05:55:50;;;;;;;7.03;3.40;;;;;;;19.96;47.95;103095.97;5013957;28;20469;-58
2022/04/16 05:58:16;;;;;;;7.03;2.95;;;;;;;19.99;48.21;103106.38;5014008;28;20474;-58
2022/04/16 06:00:42;;;;;;;6.25;2.78;;;;;;;20.01;48.49;103105.38;5013436;28;20076;-58
2022/04/16 06:03:08;;;;;;;7.50;2.75;;;;;;;20.04;48.55;103106.97;5013829;28;20476;-58
2022/04/16 06:05:33;;;;;;;5.60;2.70;;;;;;;20.09;48.40;103112.88;5013769;28;20022;-58
2022/04/16 06:07:59;;;;;;;6.85;2.90;;;;;;;20.10;48.41;103120.72;5012919;28;20423;-58
2022/04/16 06:10:25;;;;;;;5.32;2.70;;;;;;;20.14;48.17;103125.88;5013915;28;20030;-57
2022/04/16 06:12:53;;;;;;;7.07;2.85;;;;;;;20.14;48.21;103124.09;5013340;28;20038;-58
2022/04/16 06:15:20;;;;;;;5.85;2.83;;;;;;;20.16;48.25;103126.66;5012637;28;20061;-58
2022/04/16 06:17:45;;;;;;;6.95;3.47;;;;;;;20.15;48.45;103127.59;5013765;28;20037;-58
2022/04/16 06:20:11;;;;;;;5.93;3.15;;;;;;;20.16;47.23;103129.31;5012754;28;20026;-59
2022/04/16 06:22:37;;;;;;;6.90;3.45;;;;;;;20.17;47.76;103138.94;5013809;28;20088;-58
2022/04/16 06:25:03;;;;;;;6.90;3.03;;;;;;;20.14;48.32;103137.31;5013499;28;20030;-58
2022/04/16 06:27:28;;;;;;;6.53;2.60;;;;;;;20.14;48.42;103139.97;5012823;28;20113;-57
2022/04/16 06:29:54;;;;;;;5.10;2.70;;;;;;;20.15;48.48;103141.66;5013385;28;20377;-57
2022/04/16 06:32:22;;;;;;;5.35;3.00;;;;;;;20.19;48.34;103140.56;5012449;28;20300;-58
2022/04/16 06:34:47;;;;;;;7.40;2.75;;;;;;;20.21;48.22;103136.03;5012892;28;20045;-59
2022/04/16 06:37:12;;;;;;;8.30;2.93;;;;;;;20.22;48.55;103140.41;5013439;28;20441;-58
2022/04/16 06:39:39;;;;;;;6.07;2.77;;;;;;;20.24;48.70;103141.16;5013666;28;20373;-58
2022/04/16 06:42:05;;;;;;;5.40;2.85;;;;;;;20.24;48.73;103143.81;5012538;28;20286;-59
2022/04/16 06:44:31;;;;;;;5.70;2.67;;;;;;;20.22;48.49;103142.19;5013648;28;20022;-59
2022/04/16 06:46:57;;;;;;;5.50;2.72;;;;;;;20.24;48.83;103143.81;5012985;28;20470;-59
2022/04/16 06:49:24;;;;;;;8.05;3.08;;;;;;;20.27;49.09;103148.09;5012593;28;20036;-60
2022/04/16 06:51:50;;;;;;;6.68;3.00;;;;;;;20.30;48.86;103146.13;5013297;28;20026;-59
2022/04/16 06:54:15;;;;;;;6.47;2.85;;;;;;;20.34;48.04;103143.31;5013464;28;20075;-58
2022/04/16 06:56:40;;;;;;;7.87;3.63;;;;;;;20.39;48.51;103143.91;5012610;28;20108;-58
2022/04/16 06:59:08;;;;;;;4.97;2.60;;;;;;;20.37;48.60;103141.34;5012953;28;20267;-58
2022/04/16 07:01:34;;;;;;;5.55;2.90;;;;;;;20.40;48.48;103148.28;5013022;28;20025;-58
2022/04/16 07:03:59;;;;;;;7.13;3.10;;;;;;;20.41;48.59;103149.97;5011966;28;20482;-57
2022/04/16 07:06:24;;;;;;;6.05;3.22;;;;;;;20.45;48.76;103136.50;5013260;28;20496;-58
2022/04/16 07:08:49;;;;;;;7.33;3.00;;;;;;;20.48;48.47;103140.78;5012867;28;20476;-58
2022/04/16 07:11:21;;;;;;;7.10;3.20;;;;;;;20.49;48.47;103134.53;5012236;28;20299;-58
2022/04/16 07:13:46;;;;;;;7.65;3.72;;;;;;;20.51;48.30;103132.66;5013002;28;20028;-57
2022/04/16 07:16:11;;;;;;;6.87;3.40;;;;;;;20.55;48.42;103134.19;5012330;28;20049;-57
2022/04/16 07:18:36;;;;;;;6.38;4.03;;;;;;;20.59;48.36;103146.31;5012082;28;20307;-57
2022/04/16 07:21:02;;;;;;;8.10;3.30;;;;;;;20.61;48.47;103141.78;5012572;28;20033;-57
2022/04/16 07:23:27;;;;;;;8.63;3.20;;;;;;;20.66;48.82;103146.88;5012083;28;20287;-57
2022/04/16 07:25:52;;;;;;;7.78;4.32;;;;;;;20.69;48.58;103143.19;5015478;28;20030;-57
2022/04/16 07:28:23;;;;;;;9.00;3.55;;;;;;;20.71;48.47;103142.19;5016897;28;20481;-57
2022/04/16 07:30:49;;;;;;;7.13;3.17;;;;;;;20.72;48.99;103146.53;5015665;28;20482;-57
2022/04/16 07:33:15;;;;;;;8.98;3.60;;;;;;;20.74;49.25;103147.28;5016969;28;20037;-58
2022/04/16 07:35:40;;;;;;;6.93;3.47;;;;;;;20.75;48.91;103148.16;5016854;28;20544;-57
2022/04/16 07:38:06;;;;;;;6.78;3.22;;;;;;;20.76;49.04;103157.78;5015745;28;20026;-57
2022/04/16 07:40:31;;;;;;;7.07;3.42;;;;;;;20.77;49.10;103160.34;5016853;28;20034;-58
2022/04/16 07:42:58;;;;;;;9.88;3.30;;;;;;;20.77;49.08;103154.22;5016421;28;20029;-57
2022/04/16 07:45:23;;;;;;;7.82;3.85;;;;;;;20.77;48.75;103152.41;5015479;28;20466;-57
2022/04/16 07:47:49;;;;;;;7.50;3.53;;;;;;;20.76;48.68;103155.16;5016358;28;20040;-57
2022/04/16 07:50:17;;;;;;;8.43;3.67;;;;;;;20.76;48.94;103153.38;5016771;28;20068;-58
2022/04/16 07:52:44;;;;;;;8.93;3.50;;;;;;;20.76;48.99;103156.03;5015758;28;20113;-57
2022/04/16 07:55:12;;;;;;;6.35;3.40;;;;;;;20.77;48.97;103152.41;5016093;28;20488;-58
2022/04/16 07:57:37;;;;;;;7.68;3.05;;;;;;;20.77;49.19;103151.56;5016351;28;20121;-58
2022/04/16 08:00:04;;;;;;;6.67;3.43;;;;;;;20.79;49.02;103149.69;5015121;28;20105;-57
2022/04/16 08:02:29;;;;;;;8.35;3.40;;;;;;;20.80;48.69;103152.25;5016084;28;20337;-59
2022/04/16 08:04:55;;;;;;;6.80;3.33;;;;;;;20.78;48.71;103148.84;5016249;28;20429;-61
2022/04/16 08:07:30;;;;;;;8.37;3.40;;;;;;;20.78;48.88;103159.44;5016276;28;20291;-59
2022/04/16 08:09:55;;;;;;;8.82;4.15;;;;;;;20.83;48.52;103156.53;5016947;28;20264;-58
2022/04/16 08:12:21;;;;;;;7.45;3.70;;;;;;;20.88;48.74;103158.91;5017211;28;20025;-60
2022/04/16 08:14:46;;;;;;;7.93;3.88;;;;;;;20.92;48.85;103156.00;5016070;28;20033;-60
2022/04/16 08:17:12;;;;;;;8.43;4.43;;;;;;;20.97;48.88;103153.94;5016527;28;20477;-58
2022/04/16 08:19:45;;;;;;;7.40;3.20;;;;;;;21.01;48.14;103150.19;5016371;28;20272;-61
2022/04/16 08:22:18;;;;;;;8.13;4.00;;;;;;;21.04;48.11;103154.44;5018891;28;20062;-59
2022/04/16 08:25:43;;;;;;;7.88;3.78;;;;;;;21.04;48.33;103153.59;5016955;28;20040;-59
2022/04/16 08:27:35;;;;;;;7.50;3.83;;;;;;;21.05;48.32;103160.63;5016061;28;20026;-58
2022/04/16 08:30:01;;;;;;;7.22;3.55;;;;;;;21.12;48.53;103159.31;5016256;28;20030;-58
2022/04/16 08:32:26;;;;;;;6.32;3.63;;;;;;;21.15;48.55;103161.78;5016524;28;20025;-58
2022/04/16 08:34:51;;;;;;;8.05;3.97;;;;;;;21.20;48.17;103165.00;5015970;28;20033;-58
2022/04/16 08:37:17;;;;;;;8.83;3.63;;;;;;;21.23;48.42;103161.34;5015102;28;20037;-59
2022/04/16 08:39:42;;;;;;;8.43;3.92;;;;;;;21.25;48.63;103168.25;5015595;28;20294;-59
2022/04/16 08:42:08;;;;;;;7.73;3.60;;;;;;;21.27;48.19;103168.16;5014900;28;20037;-58
2022/04/16 08:44:38;;;;;;;7.38;3.65;;;;;;;21.26;48.35;103169.13;5016390;28;20386;-60
2022/04/16 08:47:08;;;;;;;8.00;3.70;;;;;;;21.23;48.53;103164.84;5016582;28;20124;-60
2022/04/16 08:49:34;;;;;;;9.07;3.78;;;;;;;21.16;48.24;103174.94;5016271;28;20030;-60
2022/04/16 08:52:03;;;;;;;6.55;3.13;;;;;;;21.18;48.50;103169.56;5016915;28;20029;-60
2022/04/16 08:54:28;;;;;;;6.53;3.80;;;;;;;21.19;48.35;103174.78;5016536;28;20034;-58
2022/04/16 08:56:53;;;;;;;7.65;3.70;;;;;;;21.21;48.64;103166.72;5016240;28;20103;-57
2022/04/16 08:59:21;;;;;;;7.30;3.78;;;;;;;21.21;48.70;103169.38;5017606;28;20121;-57
2022/04/16 09:01:46;;;;;;;6.90;3.53;;;;;;;21.19;48.39;103168.63;5015053;28;20080;-59
2022/04/16 09:04:27;;;;;;;6.70;3.43;;;;;;;21.22;48.43;103162.28;5016424;28;20034;-58
2022/04/16 09:07:00;;;;;;;8.07;3.45;;;;;;;21.23;48.68;103164.00;5015808;28;20290;-58
2022/04/16 09:09:26;;;;;;;7.15;3.55;;;;;;;21.23;48.80;103148.91;5016863;28;20026;-58
2022/04/16 09:11:52;;;;;;;8.15;3.47;;;;;;;21.23;48.79;103158.69;5016032;28;20060;-59
2022/04/16 09:14:20;;;;;;;9.13;3.70;;;;;;;21.24;49.15;103163.03;5015097;28;20022;-59
2022/04/16 09:16:45;;;;;;;7.28;3.80;;;;;;;21.24;49.16;103166.56;5016221;28;20033;-59
2022/04/16 09:19:17;;;;;;;7.80;3.58;;;;;;;21.22;49.13;103162.28;5016764;28;20022;-59
2022/04/16 09:21:43;;;;;;;7.35;3.55;;;;;;;21.21;49.04;103164.06;5016569;28;20026;-57
2022/04/16 09:24:11;;;;;;;7.95;4.03;;;;;;;21.19;48.25;103158.88;5015297;28;20026;-59
2022/04/16 09:26:38;;;;;;;7.63;3.70;;;;;;;21.17;48.62;103155.47;5016507;28;20034;-59
2022/04/16 09:29:09;;;;;;;7.30;3.20;;;;;;;21.15;48.45;103154.66;5016751;28;20045;-60
2022/04/16 09:31:39;;;;;;;7.85;3.45;;;;;;;21.15;48.60;103154.66;5016547;28;20485;-60
2022/04/16 09:34:05;;;;;;;6.50;3.00;;;;;;;21.16;47.93;103152.91;5016637;28;20539;-60
2022/04/16 09:36:31;;;;;;;8.10;3.35;;;;;;;21.17;48.75;103158.09;5017265;28;20030;-60
2022/04/16 09:39:01;;;;;;;6.50;3.58;;;;;;;21.16;48.40;103153.72;5016245;28;20083;-60
2022/04/16 09:41:41;;;;;;;6.63;3.75;;;;;;;21.17;48.77;103150.16;5016159;28;20053;-60
2022/04/16 09:44:28;;;;;;;7.72;2.97;;;;;;;21.19;48.96;103148.25;5016471;28;20018;-59
2022/04/16 09:46:55;;;;;;;5.60;3.05;;;;;;;21.18;48.84;103151.84;5015673;28;20396;-59
2022/04/16 09:49:20;;;;;;;5.85;3.22;;;;;;;21.17;49.06;103147.50;5014864;28;20022;-59
2022/04/16 09:51:50;;;;;;;8.80;3.10;;;;;;;21.16;49.17;103145.78;5015504;28;20033;-59
2022/04/16 09:54:17;;;;;;;6.05;2.72;;;;;;;21.16;49.33;103139.63;5015678;28;20032;-60
2022/04/16 09:56:46;;;;;;;8.18;3.45;;;;;;;21.18;49.56;103148.34;5015597;28;20030;-59
2022/04/16 09:59:41;;;;;;;6.07;2.90;;;;;;;21.16;49.80;103139.63;5015352;28;20091;-59
2022/04/16 10:02:10;;;;;;;8.68;2.75;;;;;;;21.17;49.72;103144.84;5015646;28;20164;-59
2022/04/16 10:04:36;;;;;;;8.45;3.50;;;;;;;21.17;49.99;103141.31;5015190;28;20022;-58
2022/04/16 10:07:04;;;;;;;7.57;3.22;;;;;;;21.17;49.71;103136.91;5014621;28;20029;-57
2022/04/16 10:09:35;;;;;;;6.93;2.88;;;;;;;21.18;49.57;103130.63;5014666;28;20374;-59
2022/04/16 10:15:08;;;;;;;6.03;2.90;;;;;;;21.23;48.26;103127.72;5015033;28;20034;-58
2022/04/16 10:17:42;;;;;;;6.75;3.15;;;;;;;21.23;48.08;103129.50;5014712;28;20378;-60
2022/04/16 10:20:17;;;;;;;5.00;3.15;;;;;;;21.23;48.30;103126.88;5014043;28;20034;-60
2022/04/16 10:22:58;;;;;;;5.82;2.90;;;;;;;21.25;48.13;103127.63;5014564;28;20048;-60
2022/04/16 10:25:32;;;;;;;7.55;3.42;;;;;;;21.26;48.18;103137.28;5014713;28;20018;-58
2022/04/16 10:28:19;;;;;;;6.32;3.20;;;;;;;21.29;48.09;103132.66;5013573;28;20083;-58
2022/04/16 10:30:52;;;;;;;6.05;3.25;;;;;;;21.29;47.38;103130.00;5014837;28;20543;-59
2022/04/16 10:33:20;;;;;;;7.05;3.42;;;;;;;21.30;47.71;103139.69;5014034;28;20128;-59
2022/04/16 10:35:54;;;;;;;7.57;4.32;;;;;;;21.31;47.24;103136.06;5014285;28;20034;-58
2022/04/16 10:38:22;;;;;;;;;;;;;;;21.32;46.90;103135.13;5014427;28;20026;-58
2022/04/16 10:41:10;;;;;;;6.57;4.00;;;;;;;21.29;47.00;103137.97;5013390;28;19955;-59
2022/04/16 10:43:36;;;;;;;6.95;3.85;;;;;;;21.26;47.27;103124.03;5015593;28;20053;-58
2022/04/16 10:46:04;;;;;;;8.20;3.90;;;;;;;21.30;47.65;103128.19;5014603;28;20049;-59
2022/04/16 10:48:34;;;;;;;7.40;3.92;;;;;;;21.30;47.20;103131.72;5014221;28;20029;-59
2022/04/16 10:51:05;;;;;;;8.25;3.60;;;;;;;21.33;47.34;103128.00;5014196;28;20485;-59
2022/04/16 10:53:35;;;;;;;6.45;3.92;;;;;;;21.34;47.11;103130.56;5013616;28;20036;-59
2022/04/16 10:56:18;;;;;;;6.60;3.97;;;;;;;21.36;46.68;103133.13;5012416;28;20528;-58
2022/04/16 10:58:46;;;;;;;6.45;3.75;;;;;;;21.36;46.79;103126.06;5013473;28;20022;-58
2022/04/16 11:01:13;;;;;;;6.97;3.97;;;;;;;21.34;47.13;103125.28;5012915;28;20034;-59
2022/04/16 11:03:49;;;;;;;6.05;3.72;;;;;;;21.37;46.79;103119.78;5013659;28;20030;-59
2022/04/16 11:06:17;;;;;;;6.80;4.03;;;;;;;21.40;46.21;103121.41;5013765;28;20025;-59
2022/04/16 11:08:45;;;;;;;7.18;3.72;;;;;;;21.43;46.22;103129.19;5012265;28;20452;-60
2022/04/16 11:11:12;;;;;;;6.32;3.78;;;;;;;21.47;46.46;103135.16;5012556;28;20029;-60
2022/04/16 11:13:39;;;;;;;5.82;3.67;;;;;;;21.49;46.45;103135.94;5013010;28;20060;-59
2022/04/16 11:16:05;;;;;;;5.60;3.83;;;;;;;21.51;46.37;103136.72;5011621;28;20567;-59
2022/04/16 11:18:42;;;;;;;5.05;3.30;;;;;;;21.51;46.50;103126.97;5013162;28;20026;-60
2022/04/16 11:21:20;;;;;;;7.30;3.80;;;;;;;21.51;46.48;103126.97;5012785;28;20022;-60
2022/04/16 11:23:48;;;;;;;7.93;3.85;;;;;;;21.52;45.58;103120.72;5012106;28;20022;-58
2022/04/16 11:34:43;;;;;;;4.93;2.85;;;;;;;21.43;45.90;103126.53;5013293;28;20041;-59
2022/04/16 11:37:09;;;;;;;4.63;3.00;;;;;;;21.41;45.98;103123.09;5012078;28;20029;-60
2022/04/16 11:39:34;;;;;;;4.90;3.03;;;;;;;21.37;46.26;103111.81;5013148;28;20298;-60
2022/04/16 11:42:07;;;;;;;5.10;3.05;;;;;;;21.36;46.00;103107.50;5012639;28;20050;-59
2022/04/16 11:44:40;;;;;;;5.63;2.83;;;;;;;21.40;43.24;103107.31;5012171;28;20025;-59
2022/04/16 11:47:27;;;;;;;6.80;3.17;;;;;;;21.32;39.36;103116.56;5012324;28;20030;-60
2022/04/16 11:49:55;;;;;;;5.20;3.03;;;;;;;21.27;36.51;103104.50;5012144;28;20065;-59
2022/04/16 11:52:31;;;;;;;4.97;3.10;;;;;;;21.20;35.10;103106.66;5012021;28;20030;-60